Oldham, Mississippi
Current Conditions -  °F | °C
As of 6:15 PM on Thursday 27 Nov 2014 (Local Time) from KCRX Reporting Station
Broken Clouds Broken Clouds  
Wind Chill: 31°   Ceiling: 3400
Heat Index: 36°   Visibility: NA
Dew Point: 27°   Wind: 6mph
Humidity: 70%   Direction: 10°N
Pressure: 30.48"   Gusts: NA
Location:  34.8106°N, 88.1999°W
Report Text: KCRX 280015Z AUTO 01005KT BKN034 02/M03 A3048 RMK AO2
Loading
Personal Weather Stations






























Interactive Weather Map New forecast layout! Learn more

10-Day Weather Forecast

Advertisements
Track Severe Weather on mobile